sensor_id;sensor_type;location;lat;lon;timestamp;P1;durP1;ratioP1;P2;durP2;ratioP2
15528;SDS011;7866;52.280;9.500;2022-08-21T00:01:24;1.83;;;1.13;;
15528;SDS011;7866;52.280;9.500;2022-08-21T00:06:28;2.65;;;1.20;;
15528;SDS011;7866;52.280;9.500;2022-08-21T00:11:29;3.13;;;0.95;;
15528;SDS011;7866;52.280;9.500;2022-08-21T00:16:33;2.47;;;1.08;;
15528;SDS011;7866;52.280;9.500;2022-08-21T00:21:35;1.10;;;1.05;;
15528;SDS011;7866;52.280;9.500;2022-08-21T00:26:37;2.40;;;1.35;;
15528;SDS011;7866;52.280;9.500;2022-08-21T00:31:40;2.25;;;1.10;;
15528;SDS011;7866;52.280;9.500;2022-08-21T00:36:43;1.98;;;1.10;;
15528;SDS011;7866;52.280;9.500;2022-08-21T00:41:44;3.80;;;1.30;;
15528;SDS011;7866;52.280;9.500;2022-08-21T00:46:47;2.20;;;1.05;;
15528;SDS011;7866;52.280;9.500;2022-08-21T00:51:50;4.88;;;1.15;;
15528;SDS011;7866;52.280;9.500;2022-08-21T00:56:55;3.40;;;1.08;;
15528;SDS011;7866;52.280;9.500;2022-08-21T01:02:05;3.00;;;1.02;;
15528;SDS011;7866;52.280;9.500;2022-08-21T01:07:10;2.92;;;1.05;;
15528;SDS011;7866;52.280;9.500;2022-08-21T01:12:12;2.25;;;1.10;;
15528;SDS011;7866;52.280;9.500;2022-08-21T01:17:16;1.95;;;1.00;;
15528;SDS011;7866;52.280;9.500;2022-08-21T01:22:20;3.42;;;1.20;;
15528;SDS011;7866;52.280;9.500;2022-08-21T01:27:22;3.72;;;1.02;;
15528;SDS011;7866;52.280;9.500;2022-08-21T01:32:24;1.85;;;1.00;;
15528;SDS011;7866;52.280;9.500;2022-08-21T01:37:27;3.10;;;1.05;;
15528;SDS011;7866;52.280;9.500;2022-08-21T01:42:29;3.65;;;1.20;;
15528;SDS011;7866;52.280;9.500;2022-08-21T01:47:30;3.78;;;1.15;;
15528;SDS011;7866;52.280;9.500;2022-08-21T01:52:34;2.03;;;1.10;;
15528;SDS011;7866;52.280;9.500;2022-08-21T01:57:36;1.40;;;1.02;;
15528;SDS011;7866;52.280;9.500;2022-08-21T02:02:38;2.28;;;1.30;;
15528;SDS011;7866;52.280;9.500;2022-08-21T02:07:43;2.08;;;1.00;;
15528;SDS011;7866;52.280;9.500;2022-08-21T02:12:46;1.77;;;1.50;;
15528;SDS011;7866;52.280;9.500;2022-08-21T02:17:49;2.67;;;1.00;;
15528;SDS011;7866;52.280;9.500;2022-08-21T02:22:55;2.90;;;1.25;;
15528;SDS011;7866;52.280;9.500;2022-08-21T02:27:57;3.75;;;1.13;;
15528;SDS011;7866;52.280;9.500;2022-08-21T02:32:59;2.50;;;1.25;;
15528;SDS011;7866;52.280;9.500;2022-08-21T02:38:07;1.33;;;0.98;;
15528;SDS011;7866;52.280;9.500;2022-08-21T02:43:12;3.65;;;1.20;;
15528;SDS011;7866;52.280;9.500;2022-08-21T02:48:16;1.13;;;0.82;;
15528;SDS011;7866;52.280;9.500;2022-08-21T02:53:22;2.40;;;1.00;;
15528;SDS011;7866;52.280;9.500;2022-08-21T02:58:25;1.25;;;0.73;;
15528;SDS011;7866;52.280;9.500;2022-08-21T03:03:28;2.70;;;1.10;;
15528;SDS011;7866;52.280;9.500;2022-08-21T03:08:31;1.67;;;1.15;;
15528;SDS011;7866;52.280;9.500;2022-08-21T03:13:33;1.73;;;1.15;;
15528;SDS011;7866;52.280;9.500;2022-08-21T03:18:35;1.15;;;0.95;;
15528;SDS011;7866;52.280;9.500;2022-08-21T03:23:38;1.98;;;1.10;;
15528;SDS011;7866;52.280;9.500;2022-08-21T03:28:41;1.35;;;0.82;;
15528;SDS011;7866;52.280;9.500;2022-08-21T03:33:43;2.17;;;1.05;;
15528;SDS011;7866;52.280;9.500;2022-08-21T03:38:46;3.10;;;1.00;;
15528;SDS011;7866;52.280;9.500;2022-08-21T03:43:48;1.52;;;1.13;;
15528;SDS011;7866;52.280;9.500;2022-08-21T03:48:50;3.67;;;0.80;;
15528;SDS011;7866;52.280;9.500;2022-08-21T03:53:54;2.75;;;0.73;;
15528;SDS011;7866;52.280;9.500;2022-08-21T03:58:55;1.75;;;1.08;;
15528;SDS011;7866;52.280;9.500;2022-08-21T04:03:57;2.90;;;1.10;;
15528;SDS011;7866;52.280;9.500;2022-08-21T04:09:00;1.75;;;1.02;;
15528;SDS011;7866;52.280;9.500;2022-08-21T04:14:02;1.10;;;0.90;;
15528;SDS011;7866;52.280;9.500;2022-08-21T04:19:04;2.00;;;1.00;;
15528;SDS011;7866;52.280;9.500;2022-08-21T04:24:07;3.30;;;1.67;;
15528;SDS011;7866;52.280;9.500;2022-08-21T04:29:10;2.40;;;1.10;;
15528;SDS011;7866;52.280;9.500;2022-08-21T04:34:12;2.47;;;1.40;;
15528;SDS011;7866;52.280;9.500;2022-08-21T04:39:15;3.58;;;1.70;;
15528;SDS011;7866;52.280;9.500;2022-08-21T04:44:16;1.95;;;1.30;;
15528;SDS011;7866;52.280;9.500;2022-08-21T04:49:18;3.20;;;1.48;;
15528;SDS011;7866;52.280;9.500;2022-08-21T04:54:21;2.20;;;1.45;;
15528;SDS011;7866;52.280;9.500;2022-08-21T04:59:30;4.25;;;1.63;;
15528;SDS011;7866;52.280;9.500;2022-08-21T05:04:34;4.25;;;1.40;;
15528;SDS011;7866;52.280;9.500;2022-08-21T05:09:40;3.35;;;1.63;;
15528;SDS011;7866;52.280;9.500;2022-08-21T05:14:42;2.90;;;1.30;;
15528;SDS011;7866;52.280;9.500;2022-08-21T05:19:44;2.33;;;1.25;;
15528;SDS011;7866;52.280;9.500;2022-08-21T05:24:47;3.80;;;1.50;;
15528;SDS011;7866;52.280;9.500;2022-08-21T05:29:49;3.03;;;1.55;;
15528;SDS011;7866;52.280;9.500;2022-08-21T05:34:50;3.25;;;1.40;;
15528;SDS011;7866;52.280;9.500;2022-08-21T05:39:53;1.38;;;1.10;;
15528;SDS011;7866;52.280;9.500;2022-08-21T05:44:56;3.65;;;1.70;;
15528;SDS011;7866;52.280;9.500;2022-08-21T05:49:57;2.83;;;1.55;;
15528;SDS011;7866;52.280;9.500;2022-08-21T05:55:00;2.90;;;1.70;;
15528;SDS011;7866;52.280;9.500;2022-08-21T06:00:03;5.10;;;2.10;;
15528;SDS011;7866;52.280;9.500;2022-08-21T06:05:05;3.30;;;1.90;;
15528;SDS011;7866;52.280;9.500;2022-08-21T06:10:09;4.03;;;1.98;;
15528;SDS011;7866;52.280;9.500;2022-08-21T06:15:11;3.55;;;2.45;;
15528;SDS011;7866;52.280;9.500;2022-08-21T06:20:13;4.30;;;2.40;;
15528;SDS011;7866;52.280;9.500;2022-08-21T06:25:16;4.97;;;2.20;;
15528;SDS011;7866;52.280;9.500;2022-08-21T06:30:19;4.88;;;2.65;;
15528;SDS011;7866;52.280;9.500;2022-08-21T06:35:21;3.63;;;2.20;;
15528;SDS011;7866;52.280;9.500;2022-08-21T06:40:26;6.43;;;2.22;;
15528;SDS011;7866;52.280;9.500;2022-08-21T06:45:28;6.97;;;2.13;;
15528;SDS011;7866;52.280;9.500;2022-08-21T06:50:30;4.65;;;1.92;;
15528;SDS011;7866;52.280;9.500;2022-08-21T06:55:33;4.85;;;1.58;;
15528;SDS011;7866;52.280;9.500;2022-08-21T07:00:38;4.88;;;2.00;;
15528;SDS011;7866;52.280;9.500;2022-08-21T07:05:41;5.32;;;1.83;;
15528;SDS011;7866;52.280;9.500;2022-08-21T07:10:44;2.08;;;1.85;;
15528;SDS011;7866;52.280;9.500;2022-08-21T07:15:46;3.00;;;2.05;;
15528;SDS011;7866;52.280;9.500;2022-08-21T07:20:48;3.92;;;1.73;;
15528;SDS011;7866;52.280;9.500;2022-08-21T07:25:51;4.72;;;2.00;;
15528;SDS011;7866;52.280;9.500;2022-08-21T07:30:54;1.75;;;1.42;;
15528;SDS011;7866;52.280;9.500;2022-08-21T07:35:58;4.80;;;1.90;;
15528;SDS011;7866;52.280;9.500;2022-08-21T07:41:01;2.58;;;1.27;;
15528;SDS011;7866;52.280;9.500;2022-08-21T07:46:03;4.35;;;2.15;;
15528;SDS011;7866;52.280;9.500;2022-08-21T07:51:06;3.33;;;1.52;;
15528;SDS011;7866;52.280;9.500;2022-08-21T07:56:11;5.65;;;1.60;;
15528;SDS011;7866;52.280;9.500;2022-08-21T08:01:13;3.15;;;1.77;;
15528;SDS011;7866;52.280;9.500;2022-08-21T08:06:15;4.05;;;2.10;;
15528;SDS011;7866;52.280;9.500;2022-08-21T08:11:20;3.47;;;1.73;;
15528;SDS011;7866;52.280;9.500;2022-08-21T08:16:22;2.58;;;1.38;;
15528;SDS011;7866;52.280;9.500;2022-08-21T08:21:24;4.22;;;1.77;;
15528;SDS011;7866;52.280;9.500;2022-08-21T08:26:27;6.85;;;1.90;;
15528;SDS011;7866;52.280;9.500;2022-08-21T08:31:29;3.88;;;1.63;;
15528;SDS011;7866;52.280;9.500;2022-08-21T08:36:32;5.85;;;2.05;;
15528;SDS011;7866;52.280;9.500;2022-08-21T08:41:37;5.32;;;2.35;;
15528;SDS011;7866;52.280;9.500;2022-08-21T08:46:40;3.10;;;1.75;;
15528;SDS011;7866;52.280;9.500;2022-08-21T08:51:46;4.93;;;1.98;;
15528;SDS011;7866;52.280;9.500;2022-08-21T08:56:54;4.45;;;1.77;;
15528;SDS011;7866;52.280;9.500;2022-08-21T09:01:55;5.63;;;2.03;;
15528;SDS011;7866;52.280;9.500;2022-08-21T09:07:00;5.65;;;2.03;;
15528;SDS011;7866;52.280;9.500;2022-08-21T09:12:17;3.45;;;1.58;;
15528;SDS011;7866;52.280;9.500;2022-08-21T09:17:33;2.55;;;1.40;;
15528;SDS011;7866;52.280;9.500;2022-08-21T09:22:43;3.58;;;1.48;;
15528;SDS011;7866;52.280;9.500;2022-08-21T09:27:56;4.03;;;2.08;;
15528;SDS011;7866;52.280;9.500;2022-08-21T09:32:57;4.35;;;1.65;;
15528;SDS011;7866;52.280;9.500;2022-08-21T09:38:00;5.18;;;1.80;;
15528;SDS011;7866;52.280;9.500;2022-08-21T09:43:11;3.38;;;1.58;;
15528;SDS011;7866;52.280;9.500;2022-08-21T09:48:19;5.20;;;1.90;;
15528;SDS011;7866;52.280;9.500;2022-08-21T09:53:22;4.72;;;2.00;;
15528;SDS011;7866;52.280;9.500;2022-08-21T09:58:31;4.00;;;2.00;;
15528;SDS011;7866;52.280;9.500;2022-08-21T10:03:35;2.28;;;1.63;;
15528;SDS011;7866;52.280;9.500;2022-08-21T10:08:37;2.78;;;1.70;;
15528;SDS011;7866;52.280;9.500;2022-08-21T10:13:46;3.05;;;1.55;;
15528;SDS011;7866;52.280;9.500;2022-08-21T10:18:56;5.78;;;1.70;;
15528;SDS011;7866;52.280;9.500;2022-08-21T10:24:08;3.30;;;1.52;;
15528;SDS011;7866;52.280;9.500;2022-08-21T10:29:19;2.53;;;1.50;;
15528;SDS011;7866;52.280;9.500;2022-08-21T10:34:38;3.33;;;1.60;;
15528;SDS011;7866;52.280;9.500;2022-08-21T10:39:52;2.47;;;1.50;;
15528;SDS011;7866;52.280;9.500;2022-08-21T10:45:14;1.67;;;0.93;;
15528;SDS011;7866;52.280;9.500;2022-08-21T10:50:28;3.08;;;1.67;;
15528;SDS011;7866;52.280;9.500;2022-08-21T10:55:35;2.67;;;1.50;;
15528;SDS011;7866;52.280;9.500;2022-08-21T11:00:43;5.70;;;1.88;;
15528;SDS011;7866;52.280;9.500;2022-08-21T11:05:50;2.55;;;1.30;;
15528;SDS011;7866;52.280;9.500;2022-08-21T11:10:55;3.00;;;1.30;;
15528;SDS011;7866;52.280;9.500;2022-08-21T11:16:03;2.75;;;1.35;;
15528;SDS011;7866;52.280;9.500;2022-08-21T11:21:15;1.98;;;1.35;;
15528;SDS011;7866;52.280;9.500;2022-08-21T11:26:29;4.05;;;1.63;;
15528;SDS011;7866;52.280;9.500;2022-08-21T11:31:46;2.33;;;1.30;;
15528;SDS011;7866;52.280;9.500;2022-08-21T11:36:59;4.18;;;1.33;;
15528;SDS011;7866;52.280;9.500;2022-08-21T11:42:13;3.63;;;1.55;;
15528;SDS011;7866;52.280;9.500;2022-08-21T11:47:23;4.18;;;1.45;;
15528;SDS011;7866;52.280;9.500;2022-08-21T11:52:31;2.90;;;1.60;;
15528;SDS011;7866;52.280;9.500;2022-08-21T11:57:38;2.53;;;1.30;;
15528;SDS011;7866;52.280;9.500;2022-08-21T12:02:49;3.80;;;1.70;;
15528;SDS011;7866;52.280;9.500;2022-08-21T12:08:00;2.92;;;1.40;;
15528;SDS011;7866;52.280;9.500;2022-08-21T12:13:08;3.65;;;1.60;;
15528;SDS011;7866;52.280;9.500;2022-08-21T12:18:29;3.13;;;1.38;;
15528;SDS011;7866;52.280;9.500;2022-08-21T12:23:32;2.50;;;1.55;;
15528;SDS011;7866;52.280;9.500;2022-08-21T12:28:44;1.30;;;1.20;;
15528;SDS011;7866;52.280;9.500;2022-08-21T12:33:51;2.75;;;1.45;;
15528;SDS011;7866;52.280;9.500;2022-08-21T12:38:56;2.25;;;1.40;;
15528;SDS011;7866;52.280;9.500;2022-08-21T12:44:02;1.67;;;1.30;;
15528;SDS011;7866;52.280;9.500;2022-08-21T12:49:13;3.58;;;1.52;;
15528;SDS011;7866;52.280;9.500;2022-08-21T12:54:23;2.90;;;1.30;;
15528;SDS011;7866;52.280;9.500;2022-08-21T12:59:27;3.22;;;1.58;;
15528;SDS011;7866;52.280;9.500;2022-08-21T13:04:33;2.67;;;1.30;;
15528;SDS011;7866;52.280;9.500;2022-08-21T13:09:42;2.33;;;1.38;;
15528;SDS011;7866;52.280;9.500;2022-08-21T13:14:48;3.38;;;1.45;;
15528;SDS011;7866;52.280;9.500;2022-08-21T13:19:55;2.10;;;1.33;;
15528;SDS011;7866;52.280;9.500;2022-08-21T13:24:58;3.25;;;1.35;;
15528;SDS011;7866;52.280;9.500;2022-08-21T13:30:00;2.10;;;1.52;;
15528;SDS011;7866;52.280;9.500;2022-08-21T13:35:10;2.80;;;1.30;;
15528;SDS011;7866;52.280;9.500;2022-08-21T13:40:15;2.30;;;1.40;;
15528;SDS011;7866;52.280;9.500;2022-08-21T13:45:22;2.72;;;1.60;;
15528;SDS011;7866;52.280;9.500;2022-08-21T13:50:28;2.97;;;1.58;;
15528;SDS011;7866;52.280;9.500;2022-08-21T13:55:37;1.90;;;1.65;;
15528;SDS011;7866;52.280;9.500;2022-08-21T14:00:45;2.97;;;1.65;;
15528;SDS011;7866;52.280;9.500;2022-08-21T14:05:50;2.17;;;1.52;;
15528;SDS011;7866;52.280;9.500;2022-08-21T14:10:52;2.15;;;1.70;;
15528;SDS011;7866;52.280;9.500;2022-08-21T14:15:55;1.98;;;1.70;;
15528;SDS011;7866;52.280;9.500;2022-08-21T14:21:07;2.35;;;1.70;;
15528;SDS011;7866;52.280;9.500;2022-08-21T14:26:10;2.13;;;1.60;;
15528;SDS011;7866;52.280;9.500;2022-08-21T14:31:13;3.13;;;1.70;;
15528;SDS011;7866;52.280;9.500;2022-08-21T14:36:19;4.72;;;1.83;;
15528;SDS011;7866;52.280;9.500;2022-08-21T14:41:21;2.03;;;1.40;;
15528;SDS011;7866;52.280;9.500;2022-08-21T14:46:28;2.72;;;1.83;;
15528;SDS011;7866;52.280;9.500;2022-08-21T14:51:33;4.53;;;1.85;;
15528;SDS011;7866;52.280;9.500;2022-08-21T14:56:35;3.67;;;1.85;;
15528;SDS011;7866;52.280;9.500;2022-08-21T15:01:37;3.83;;;1.70;;
15528;SDS011;7866;52.280;9.500;2022-08-21T15:06:41;1.55;;;1.40;;
15528;SDS011;7866;52.280;9.500;2022-08-21T15:11:43;3.15;;;1.50;;
15528;SDS011;7866;52.280;9.500;2022-08-21T15:16:45;3.70;;;1.60;;
15528;SDS011;7866;52.280;9.500;2022-08-21T15:21:48;2.13;;;1.42;;
15528;SDS011;7866;52.280;9.500;2022-08-21T15:26:50;2.13;;;1.50;;
15528;SDS011;7866;52.280;9.500;2022-08-21T15:31:54;2.47;;;1.60;;
15528;SDS011;7866;52.280;9.500;2022-08-21T15:36:58;3.30;;;1.88;;
15528;SDS011;7866;52.280;9.500;2022-08-21T15:41:59;1.67;;;1.42;;
15528;SDS011;7866;52.280;9.500;2022-08-21T15:47:01;3.42;;;1.83;;
15528;SDS011;7866;52.280;9.500;2022-08-21T15:52:05;2.70;;;1.50;;
15528;SDS011;7866;52.280;9.500;2022-08-21T15:57:07;3.17;;;1.40;;
15528;SDS011;7866;52.280;9.500;2022-08-21T16:02:12;1.83;;;1.38;;
15528;SDS011;7866;52.280;9.500;2022-08-21T16:07:18;4.32;;;2.00;;
15528;SDS011;7866;52.280;9.500;2022-08-21T16:12:20;3.03;;;1.55;;
15528;SDS011;7866;52.280;9.500;2022-08-21T16:17:26;8.50;;;2.08;;
15528;SDS011;7866;52.280;9.500;2022-08-21T16:22:31;3.08;;;1.98;;
15528;SDS011;7866;52.280;9.500;2022-08-21T16:27:33;3.90;;;1.70;;
15528;SDS011;7866;52.280;9.500;2022-08-21T16:32:36;1.98;;;1.65;;
15528;SDS011;7866;52.280;9.500;2022-08-21T16:37:40;1.95;;;1.65;;
15528;SDS011;7866;52.280;9.500;2022-08-21T16:42:42;4.68;;;1.80;;
15528;SDS011;7866;52.280;9.500;2022-08-21T16:47:45;2.10;;;1.60;;
15528;SDS011;7866;52.280;9.500;2022-08-21T16:52:48;1.75;;;1.65;;
15528;SDS011;7866;52.280;9.500;2022-08-21T16:57:50;1.83;;;1.70;;
15528;SDS011;7866;52.280;9.500;2022-08-21T17:02:54;2.47;;;1.50;;
15528;SDS011;7866;52.280;9.500;2022-08-21T17:07:58;4.82;;;2.05;;
15528;SDS011;7866;52.280;9.500;2022-08-21T17:13:00;3.20;;;1.60;;
15528;SDS011;7866;52.280;9.500;2022-08-21T17:18:03;3.13;;;1.80;;
15528;SDS011;7866;52.280;9.500;2022-08-21T17:23:09;2.88;;;1.63;;
15528;SDS011;7866;52.280;9.500;2022-08-21T17:28:11;3.22;;;1.60;;
15528;SDS011;7866;52.280;9.500;2022-08-21T17:33:16;2.22;;;1.70;;
15528;SDS011;7866;52.280;9.500;2022-08-21T17:38:21;1.92;;;1.80;;
15528;SDS011;7866;52.280;9.500;2022-08-21T17:43:22;1.85;;;1.52;;
15528;SDS011;7866;52.280;9.500;2022-08-21T17:48:25;2.33;;;1.70;;
15528;SDS011;7866;52.280;9.500;2022-08-21T17:53:28;2.17;;;1.60;;
15528;SDS011;7866;52.280;9.500;2022-08-21T17:58:30;3.10;;;1.50;;
15528;SDS011;7866;52.280;9.500;2022-08-21T18:03:32;2.38;;;1.50;;
15528;SDS011;7866;52.280;9.500;2022-08-21T18:08:36;3.92;;;1.77;;
15528;SDS011;7866;52.280;9.500;2022-08-21T18:13:38;1.73;;;1.60;;
15528;SDS011;7866;52.280;9.500;2022-08-21T18:18:41;3.58;;;1.55;;
15528;SDS011;7866;52.280;9.500;2022-08-21T18:23:45;2.53;;;1.55;;
15528;SDS011;7866;52.280;9.500;2022-08-21T18:28:46;1.60;;;1.50;;
15528;SDS011;7866;52.280;9.500;2022-08-21T18:33:48;1.58;;;1.42;;
15528;SDS011;7866;52.280;9.500;2022-08-21T18:38:52;2.08;;;1.42;;
15528;SDS011;7866;52.280;9.500;2022-08-21T18:43:54;1.20;;;1.10;;
15528;SDS011;7866;52.280;9.500;2022-08-21T18:48:56;2.47;;;1.50;;
15528;SDS011;7866;52.280;9.500;2022-08-21T18:53:59;5.63;;;1.40;;
15528;SDS011;7866;52.280;9.500;2022-08-21T18:59:00;2.72;;;1.20;;
15528;SDS011;7866;52.280;9.500;2022-08-21T19:04:03;1.40;;;1.30;;
15528;SDS011;7866;52.280;9.500;2022-08-21T19:09:07;1.35;;;1.17;;
15528;SDS011;7866;52.280;9.500;2022-08-21T19:14:11;1.60;;;1.00;;
15528;SDS011;7866;52.280;9.500;2022-08-21T19:19:16;2.63;;;1.02;;
15528;SDS011;7866;52.280;9.500;2022-08-21T19:24:20;1.52;;;1.40;;
15528;SDS011;7866;52.280;9.500;2022-08-21T19:29:22;1.92;;;1.15;;
15528;SDS011;7866;52.280;9.500;2022-08-21T19:34:24;1.52;;;1.20;;
15528;SDS011;7866;52.280;9.500;2022-08-21T19:39:30;1.95;;;1.10;;
15528;SDS011;7866;52.280;9.500;2022-08-21T19:44:34;2.00;;;1.10;;
15528;SDS011;7866;52.280;9.500;2022-08-21T19:49:37;1.88;;;1.23;;
15528;SDS011;7866;52.280;9.500;2022-08-21T19:54:43;2.22;;;1.30;;
15528;SDS011;7866;52.280;9.500;2022-08-21T19:59:45;1.63;;;1.10;;
15528;SDS011;7866;52.280;9.500;2022-08-21T20:04:47;1.55;;;1.10;;
15528;SDS011;7866;52.280;9.500;2022-08-21T20:09:50;2.17;;;1.10;;
15528;SDS011;7866;52.280;9.500;2022-08-21T20:14:52;4.05;;;1.40;;
15528;SDS011;7866;52.280;9.500;2022-08-21T20:19:54;2.42;;;1.00;;
15528;SDS011;7866;52.280;9.500;2022-08-21T20:24:57;1.25;;;1.13;;
15528;SDS011;7866;52.280;9.500;2022-08-21T20:29:59;3.45;;;1.38;;
15528;SDS011;7866;52.280;9.500;2022-08-21T20:35:00;1.90;;;1.00;;
15528;SDS011;7866;52.280;9.500;2022-08-21T20:40:05;1.67;;;1.35;;
15528;SDS011;7866;52.280;9.500;2022-08-21T20:45:09;1.33;;;1.20;;
15528;SDS011;7866;52.280;9.500;2022-08-21T20:50:12;4.75;;;1.70;;
15528;SDS011;7866;52.280;9.500;2022-08-21T20:55:21;3.40;;;1.30;;
15528;SDS011;7866;52.280;9.500;2022-08-21T21:00:25;2.97;;;1.77;;
15528;SDS011;7866;52.280;9.500;2022-08-21T21:05:30;1.27;;;1.00;;
15528;SDS011;7866;52.280;9.500;2022-08-21T21:10:40;2.25;;;1.30;;
15528;SDS011;7866;52.280;9.500;2022-08-21T21:15:45;1.65;;;1.10;;
15528;SDS011;7866;52.280;9.500;2022-08-21T21:20:52;1.33;;;1.20;;
15528;SDS011;7866;52.280;9.500;2022-08-21T21:26:02;1.92;;;1.10;;
15528;SDS011;7866;52.280;9.500;2022-08-21T21:31:09;2.35;;;1.20;;
15528;SDS011;7866;52.280;9.500;2022-08-21T21:36:15;1.75;;;1.15;;
15528;SDS011;7866;52.280;9.500;2022-08-21T21:41:32;1.25;;;1.05;;
15528;SDS011;7866;52.280;9.500;2022-08-21T21:46:38;1.30;;;1.20;;
15528;SDS011;7866;52.280;9.500;2022-08-21T21:51:50;2.25;;;1.38;;
15528;SDS011;7866;52.280;9.500;2022-08-21T21:57:04;2.53;;;1.15;;
15528;SDS011;7866;52.280;9.500;2022-08-21T22:02:12;2.42;;;1.50;;
15528;SDS011;7866;52.280;9.500;2022-08-21T22:07:22;1.95;;;1.20;;
15528;SDS011;7866;52.280;9.500;2022-08-21T22:12:33;1.95;;;1.40;;
15528;SDS011;7866;52.280;9.500;2022-08-21T22:17:51;1.85;;;1.13;;
15528;SDS011;7866;52.280;9.500;2022-08-21T22:22:58;2.47;;;1.52;;
15528;SDS011;7866;52.280;9.500;2022-08-21T22:28:05;2.05;;;1.50;;
15528;SDS011;7866;52.280;9.500;2022-08-21T22:33:10;2.08;;;1.52;;
15528;SDS011;7866;52.280;9.500;2022-08-21T22:38:19;2.53;;;1.50;;
15528;SDS011;7866;52.280;9.500;2022-08-21T22:43:29;2.50;;;1.52;;
15528;SDS011;7866;52.280;9.500;2022-08-21T22:48:33;1.83;;;1.58;;
15528;SDS011;7866;52.280;9.500;2022-08-21T22:53:39;3.38;;;2.00;;
15528;SDS011;7866;52.280;9.500;2022-08-21T22:58:52;2.40;;;1.75;;
15528;SDS011;7866;52.280;9.500;2022-08-21T23:03:57;3.65;;;1.92;;
15528;SDS011;7866;52.280;9.500;2022-08-21T23:09:15;3.05;;;1.90;;
15528;SDS011;7866;52.280;9.500;2022-08-21T23:14:22;3.30;;;1.98;;
15528;SDS011;7866;52.280;9.500;2022-08-21T23:19:29;2.22;;;1.90;;
15528;SDS011;7866;52.280;9.500;2022-08-21T23:24:45;3.58;;;2.00;;
15528;SDS011;7866;52.280;9.500;2022-08-21T23:30:03;3.53;;;1.80;;
15528;SDS011;7866;52.280;9.500;2022-08-21T23:35:09;4.20;;;2.22;;
15528;SDS011;7866;52.280;9.500;2022-08-21T23:40:30;2.55;;;1.75;;
15528;SDS011;7866;52.280;9.500;2022-08-21T23:45:43;3.72;;;1.70;;
15528;SDS011;7866;52.280;9.500;2022-08-21T23:50:57;3.67;;;1.63;;
15528;SDS011;7866;52.280;9.500;2022-08-21T23:56:06;4.63;;;1.90;;
